createdAt,value
2023-05-25T00:01:49.301Z,12.65
2023-05-25T00:04:18.809Z,11.00
2023-05-25T00:06:46.890Z,10.27
2023-05-25T00:09:14.613Z,8.77
2023-05-25T00:11:42.237Z,9.63
2023-05-25T00:14:09.790Z,9.52
2023-05-25T00:16:39.986Z,8.98
2023-05-25T00:19:09.972Z,10.38
2023-05-25T00:21:38.342Z,11.75
2023-05-25T00:24:06.773Z,13.10
2023-05-25T00:26:37.723Z,13.43
2023-05-25T00:29:06.531Z,17.30
2023-05-25T00:31:35.994Z,22.58
2023-05-25T00:34:03.596Z,19.80
2023-05-25T00:36:31.147Z,17.20
2023-05-25T00:38:58.813Z,13.35
2023-05-25T00:41:27.449Z,11.00
2023-05-25T00:43:56.906Z,11.20
2023-05-25T00:46:26.197Z,13.02
2023-05-25T00:51:22.046Z,13.23
2023-05-25T00:53:50.203Z,13.57
2023-05-25T00:56:30.750Z,14.25
2023-05-25T00:59:06.418Z,11.73
2023-05-25T01:01:40.171Z,11.27
2023-05-25T01:04:14.449Z,11.52
2023-05-25T01:06:47.558Z,11.68
2023-05-25T01:09:19.025Z,11.40
2023-05-25T01:11:51.422Z,14.32
2023-05-25T01:14:21.327Z,17.58
2023-05-25T01:16:51.201Z,22.55
2023-05-25T01:19:19.135Z,18.88
2023-05-25T01:22:18.174Z,17.58
2023-05-25T01:25:01.623Z,19.88
2023-05-25T01:27:39.448Z,15.23
2023-05-25T01:30:12.135Z,15.45
2023-05-25T01:33:00.950Z,15.70
2023-05-25T01:35:30.815Z,18.40
2023-05-25T01:40:27.483Z,15.88
2023-05-25T01:42:55.163Z,18.23
2023-05-25T01:45:22.893Z,14.27
2023-05-25T01:48:15.799Z,13.32
2023-05-25T01:50:58.766Z,12.88
2023-05-25T01:53:36.263Z,14.40
2023-05-25T01:56:08.756Z,9.77
2023-05-25T01:58:44.798Z,10.45
2023-05-25T02:01:15.531Z,9.77
2023-05-25T02:03:44.309Z,11.85
2023-05-25T02:06:11.908Z,10.40
2023-05-25T02:08:39.549Z,10.18
2023-05-25T02:11:07.223Z,10.82
2023-05-25T02:13:34.808Z,11.35
2023-05-25T02:16:02.770Z,9.05
2023-05-25T02:18:31.962Z,10.85
2023-05-25T02:20:59.734Z,8.52
2023-05-25T02:23:27.204Z,7.38
2023-05-25T02:25:55.511Z,7.57
2023-05-25T02:28:24.499Z,8.80
2023-05-25T02:30:51.928Z,7.55
2023-05-25T02:33:19.735Z,8.15
2023-05-25T02:35:47.301Z,7.47
2023-05-25T02:38:15.098Z,8.15
2023-05-25T02:40:42.905Z,8.07
2023-05-25T02:43:10.477Z,8.43
2023-05-25T02:45:40.091Z,8.98
2023-05-25T02:48:08.184Z,9.38
2023-05-25T02:50:36.490Z,10.93
2023-05-25T02:53:07.414Z,11.73
2023-05-25T02:55:34.933Z,11.70
2023-05-25T02:58:03.406Z,10.68
2023-05-25T03:01:00.087Z,8.80
2023-05-25T03:03:28.329Z,7.27
2023-05-25T03:05:57.317Z,6.60
2023-05-25T03:08:24.849Z,6.82
2023-05-25T03:10:52.247Z,6.93
2023-05-25T03:13:20.586Z,6.43
2023-05-25T03:15:48.167Z,8.30
2023-05-25T03:18:16.479Z,9.95
2023-05-25T03:20:45.169Z,7.80
2023-05-25T03:23:12.710Z,9.40
2023-05-25T03:25:40.559Z,9.85
2023-05-25T03:28:07.973Z,8.80
2023-05-25T03:30:35.584Z,7.90
2023-05-25T03:33:03.610Z,7.45
2023-05-25T03:35:36.539Z,8.90
2023-05-25T03:38:04.150Z,10.30
2023-05-25T03:40:31.664Z,10.50
2023-05-25T03:42:59.153Z,10.93
2023-05-25T03:45:26.690Z,9.88
2023-05-25T03:47:54.263Z,10.25
2023-05-25T03:50:22.592Z,10.60
2023-05-25T03:52:50.553Z,10.93
2023-05-25T03:55:18.983Z,8.57
2023-05-25T03:57:46.329Z,6.35
2023-05-25T04:00:14.637Z,6.10
2023-05-25T04:02:43.561Z,6.25
2023-05-25T04:05:11.018Z,6.15
2023-05-25T04:07:38.359Z,4.88
2023-05-25T04:10:06.669Z,6.93
2023-05-25T04:12:34.361Z,6.53
2023-05-25T04:15:03.563Z,7.33
2023-05-25T04:17:32.102Z,7.25
2023-05-25T04:19:59.824Z,7.05
2023-05-25T04:22:27.370Z,7.35
2023-05-25T04:24:55.802Z,7.03
2023-05-25T04:27:23.293Z,6.28
2023-05-25T04:29:50.814Z,6.55
2023-05-25T04:32:29.163Z,6.38
2023-05-25T04:35:16.298Z,5.90
2023-05-25T04:37:47.739Z,6.68
2023-05-25T04:40:16.027Z,8.25
2023-05-25T04:42:44.396Z,8.38
2023-05-25T04:45:16.702Z,7.35
2023-05-25T04:47:45.219Z,7.35
2023-05-25T04:50:12.933Z,7.25
2023-05-25T04:52:40.309Z,8.18
2023-05-25T04:55:10.101Z,6.72
2023-05-25T04:57:40.735Z,7.63
2023-05-25T05:00:10.489Z,6.35
2023-05-25T05:02:39.516Z,6.55
2023-05-25T05:05:08.380Z,7.20
2023-05-25T05:07:36.559Z,8.05
2023-05-25T05:10:05.635Z,7.68
2023-05-25T05:12:35.602Z,9.10
2023-05-25T05:15:03.424Z,7.50
2023-05-25T05:17:31.219Z,7.67
2023-05-25T05:19:59.225Z,9.85
2023-05-25T05:22:27.028Z,8.53
2023-05-25T05:24:54.481Z,7.90
2023-05-25T05:27:28.397Z,8.27
2023-05-25T05:30:03.059Z,10.13
2023-05-25T05:32:30.770Z,8.38
2023-05-25T05:34:59.389Z,7.68
2023-05-25T05:37:38.478Z,8.98
2023-05-25T05:40:07.373Z,9.20
2023-05-25T05:42:36.396Z,9.27
2023-05-25T05:45:04.492Z,9.73
2023-05-25T05:47:32.000Z,9.07
2023-05-25T05:49:59.652Z,7.93
2023-05-25T05:52:27.895Z,9.35
2023-05-25T05:54:55.627Z,8.48
2023-05-25T05:57:23.401Z,8.55
2023-05-25T05:59:50.829Z,8.48
2023-05-25T06:02:19.547Z,8.88
2023-05-25T06:04:47.542Z,7.82
2023-05-25T06:07:15.336Z,8.20
2023-05-25T06:09:42.907Z,9.30
2023-05-25T06:12:10.644Z,7.90
2023-05-25T06:14:38.072Z,8.13
2023-05-25T06:17:07.026Z,6.97
2023-05-25T06:22:03.827Z,6.75
2023-05-25T06:24:31.382Z,6.05
2023-05-25T06:26:58.920Z,5.07
2023-05-25T06:29:26.471Z,5.15
2023-05-25T06:31:54.729Z,4.15
2023-05-25T06:34:22.448Z,4.45
2023-05-25T06:36:50.031Z,4.87
2023-05-25T06:39:19.585Z,4.00
2023-05-25T06:41:47.110Z,4.32
2023-05-25T06:44:26.417Z,5.15
2023-05-25T06:46:53.827Z,6.13
2023-05-25T06:49:21.492Z,8.55
2023-05-25T06:51:50.440Z,10.10
2023-05-25T06:54:19.014Z,8.50
2023-05-25T06:59:13.759Z,7.60
2023-05-25T07:01:41.358Z,6.87
2023-05-25T07:04:08.872Z,9.52
2023-05-25T07:06:36.564Z,9.50
2023-05-25T07:09:04.165Z,5.17
2023-05-25T07:11:31.686Z,5.10
2023-05-25T07:13:59.108Z,4.40
2023-05-25T07:16:26.780Z,5.40
2023-05-25T07:18:54.651Z,4.15
2023-05-25T07:21:22.057Z,5.50
2023-05-25T07:23:49.930Z,5.70
2023-05-25T07:26:17.739Z,4.68
2023-05-25T07:28:45.347Z,5.15
2023-05-25T07:31:12.815Z,4.18
2023-05-25T07:33:40.545Z,5.30
2023-05-25T07:36:09.312Z,5.30
2023-05-25T07:38:36.942Z,4.82
2023-05-25T07:41:05.028Z,4.70
2023-05-25T07:43:32.822Z,4.45
2023-05-25T07:46:03.967Z,6.63
2023-05-25T07:48:31.625Z,5.25
2023-05-25T07:50:59.197Z,5.47
2023-05-25T07:53:26.850Z,5.87
2023-05-25T07:55:54.265Z,4.90
2023-05-25T07:58:21.606Z,4.32
2023-05-25T08:00:49.739Z,4.68
2023-05-25T08:03:18.613Z,4.03
2023-05-25T08:08:13.832Z,4.35
2023-05-25T08:10:41.306Z,4.20
2023-05-25T08:13:08.697Z,3.60
2023-05-25T08:15:36.189Z,6.25
2023-05-25T08:18:04.126Z,4.75
2023-05-25T08:20:31.725Z,4.05
2023-05-25T08:22:59.199Z,4.22
2023-05-25T08:25:26.790Z,3.55
2023-05-25T08:27:54.225Z,4.10
2023-05-25T08:30:22.118Z,3.88
2023-05-25T08:32:49.650Z,4.67
2023-05-25T08:35:17.128Z,3.83
2023-05-25T08:37:44.750Z,4.45
2023-05-25T08:40:16.543Z,5.07
2023-05-25T08:42:46.054Z,4.95
2023-05-25T08:45:26.460Z,4.97
2023-05-25T08:48:03.937Z,3.20
2023-05-25T08:50:33.193Z,3.03
2023-05-25T08:53:07.705Z,3.65
2023-05-25T08:55:38.625Z,3.90
2023-05-25T08:58:19.345Z,4.32
2023-05-25T09:01:01.555Z,3.80
2023-05-25T09:03:32.763Z,4.60
2023-05-25T09:06:01.259Z,3.92
2023-05-25T09:08:29.520Z,3.60
2023-05-25T09:10:57.765Z,4.55
2023-05-25T09:13:25.678Z,3.70
2023-05-25T09:15:53.817Z,3.58
2023-05-25T09:18:21.328Z,3.83
2023-05-25T09:20:49.276Z,3.05
2023-05-25T09:23:17.432Z,3.13
2023-05-25T09:25:47.304Z,3.33
2023-05-25T09:28:26.708Z,3.47
2023-05-25T09:30:56.002Z,2.92
2023-05-25T09:33:23.643Z,3.33
2023-05-25T09:35:51.477Z,3.43
2023-05-25T09:38:20.462Z,2.42
2023-05-25T09:40:48.355Z,2.72
2023-05-25T09:43:25.355Z,3.13
2023-05-25T09:46:00.238Z,2.70
2023-05-25T09:48:28.772Z,4.90
2023-05-25T09:50:57.001Z,1.77
2023-05-25T09:53:25.802Z,2.20
2023-05-25T09:58:26.974Z,2.40
2023-05-25T10:00:54.856Z,2.08
2023-05-25T10:03:22.501Z,2.75
2023-05-25T10:05:50.919Z,2.50
2023-05-25T10:08:21.245Z,1.65
2023-05-25T10:10:49.493Z,2.13
2023-05-25T10:13:26.578Z,2.35
2023-05-25T10:15:54.687Z,1.58
2023-05-25T10:18:28.712Z,2.28
2023-05-25T10:21:04.163Z,2.58
2023-05-25T10:23:48.835Z,2.45
2023-05-25T10:26:21.372Z,1.60
2023-05-25T10:28:51.445Z,2.15
2023-05-25T10:31:20.836Z,2.03
2023-05-25T10:33:51.976Z,2.75
2023-05-25T10:36:20.795Z,2.50
2023-05-25T10:38:51.463Z,2.50
2023-05-25T10:41:20.531Z,3.03
2023-05-25T10:43:49.486Z,3.42
2023-05-25T10:46:18.050Z,3.13
2023-05-25T10:48:48.363Z,2.90
2023-05-25T10:51:20.043Z,2.75
2023-05-25T10:54:00.587Z,2.92
2023-05-25T10:56:28.196Z,2.97
2023-05-25T10:58:56.430Z,3.53
2023-05-25T11:01:25.279Z,2.80
2023-05-25T11:04:10.757Z,2.75
2023-05-25T11:06:43.540Z,3.00
2023-05-25T11:09:26.310Z,3.95
2023-05-25T11:12:03.082Z,2.78
2023-05-25T11:14:41.510Z,3.05
2023-05-25T11:17:11.155Z,2.38
2023-05-25T11:19:43.664Z,2.35
2023-05-25T11:22:20.501Z,3.45
2023-05-25T11:24:52.212Z,2.63
2023-05-25T11:27:28.190Z,2.95
2023-05-25T11:29:57.685Z,2.38
2023-05-25T11:32:28.794Z,2.53
2023-05-25T11:34:57.677Z,2.28
2023-05-25T11:37:30.637Z,2.65
2023-05-25T11:39:58.113Z,2.20
2023-05-25T11:42:25.908Z,1.80
2023-05-25T11:44:53.384Z,1.60
2023-05-25T11:47:25.380Z,1.67
2023-05-25T11:49:56.015Z,1.38
2023-05-25T11:52:23.450Z,1.33
2023-05-25T11:54:52.524Z,1.30
2023-05-25T11:57:25.630Z,1.10
2023-05-25T12:00:01.347Z,1.65
2023-05-25T12:02:38.368Z,1.40
2023-05-25T12:05:11.195Z,1.45
2023-05-25T12:07:46.298Z,2.63
2023-05-25T12:10:19.139Z,2.47
2023-05-25T12:12:49.425Z,2.00
2023-05-25T12:15:22.106Z,1.83
2023-05-25T12:17:51.624Z,1.98
2023-05-25T12:20:19.816Z,2.30
2023-05-25T12:22:47.664Z,2.10
2023-05-25T12:25:20.880Z,2.13
2023-05-25T12:27:48.430Z,2.10
2023-05-25T12:30:16.032Z,2.20
2023-05-25T12:33:02.582Z,2.35
2023-05-25T12:35:49.222Z,2.17
2023-05-25T12:38:19.436Z,2.33
2023-05-25T12:40:47.484Z,2.20
2023-05-25T12:43:16.962Z,2.55
2023-05-25T12:45:44.734Z,4.97
2023-05-25T12:48:12.238Z,4.75
2023-05-25T12:50:57.724Z,4.72
2023-05-25T12:53:26.588Z,3.70
2023-05-25T12:56:03.893Z,2.85
2023-05-25T12:58:31.479Z,3.47
2023-05-25T13:00:59.170Z,3.00
2023-05-25T13:03:27.133Z,2.08
2023-05-25T13:06:01.555Z,3.10
2023-05-25T13:08:30.043Z,2.70
2023-05-25T13:10:57.788Z,3.15
2023-05-25T13:13:25.217Z,2.88
2023-05-25T13:15:53.295Z,3.33
2023-05-25T13:18:20.996Z,2.23
2023-05-25T13:20:51.294Z,2.97
2023-05-25T13:23:21.072Z,2.42
2023-05-25T13:25:48.593Z,2.50
2023-05-25T13:28:16.155Z,2.65
2023-05-25T13:30:43.634Z,2.50
2023-05-25T13:33:11.467Z,3.53
2023-05-25T13:35:57.261Z,3.50
2023-05-25T13:38:24.886Z,3.15
2023-05-25T13:40:52.588Z,2.75
2023-05-25T13:43:20.376Z,2.83
2023-05-25T13:45:48.042Z,3.92
2023-05-25T13:48:15.466Z,3.15
2023-05-25T13:50:44.542Z,3.70
2023-05-25T13:53:13.111Z,2.97
2023-05-25T13:55:40.586Z,4.10
2023-05-25T13:58:08.789Z,3.60
2023-05-25T14:00:36.434Z,4.80
2023-05-25T14:03:04.046Z,4.13
2023-05-25T14:05:31.791Z,5.00
2023-05-25T14:08:04.071Z,4.22
2023-05-25T14:10:31.830Z,3.72
2023-05-25T14:12:59.506Z,3.45
2023-05-25T14:15:27.108Z,4.70
2023-05-25T14:17:57.154Z,4.30
2023-05-25T14:20:25.275Z,4.05
2023-05-25T14:22:53.282Z,3.78
2023-05-25T14:25:20.906Z,3.50
2023-05-25T14:27:48.299Z,4.22
2023-05-25T14:30:15.779Z,3.95
2023-05-25T14:32:43.412Z,4.28
2023-05-25T14:35:10.983Z,3.95
2023-05-25T14:37:38.529Z,5.30
2023-05-25T14:40:06.956Z,4.75
2023-05-25T14:42:34.399Z,5.38
2023-05-25T14:45:01.984Z,3.80
2023-05-25T14:47:29.971Z,4.00
2023-05-25T14:49:57.442Z,4.73
2023-05-25T14:52:25.153Z,5.00
2023-05-25T14:54:52.806Z,4.00
2023-05-25T14:57:20.192Z,4.15
2023-05-25T14:59:47.520Z,3.78
2023-05-25T15:02:14.869Z,5.60
2023-05-25T15:04:42.354Z,5.50
2023-05-25T15:07:12.277Z,3.58
2023-05-25T15:09:41.593Z,4.43
2023-05-25T15:12:09.002Z,4.35
2023-05-25T15:14:39.484Z,3.97
2023-05-25T15:17:07.323Z,4.88
2023-05-25T15:19:35.149Z,3.93
2023-05-25T15:22:03.347Z,4.53
2023-05-25T15:24:30.887Z,4.60
2023-05-25T15:26:58.291Z,5.75
2023-05-25T15:29:25.836Z,7.53
2023-05-25T15:31:53.425Z,5.13
2023-05-25T15:34:20.971Z,5.40
2023-05-25T15:36:48.413Z,5.72
2023-05-25T15:39:15.843Z,5.72
2023-05-25T15:41:43.485Z,5.90
2023-05-25T15:44:11.856Z,5.90
2023-05-25T15:46:40.460Z,6.35
2023-05-25T15:49:10.648Z,4.50
2023-05-25T15:51:43.818Z,4.20
2023-05-25T15:54:14.363Z,5.20
2023-05-25T15:56:42.356Z,4.53
2023-05-25T15:59:11.660Z,4.70
2023-05-25T16:01:40.049Z,5.18
2023-05-25T16:04:07.605Z,5.53
2023-05-25T16:06:35.677Z,5.93
2023-05-25T16:09:03.698Z,5.67
2023-05-25T16:11:33.334Z,5.97
2023-05-25T16:14:00.836Z,6.28
2023-05-25T16:16:28.972Z,5.47
2023-05-25T16:18:56.644Z,5.80
2023-05-25T16:21:24.253Z,5.78
2023-05-25T16:23:51.715Z,5.15
2023-05-25T16:26:19.294Z,5.20
2023-05-25T16:28:46.724Z,5.55
2023-05-25T16:31:15.049Z,5.57
2023-05-25T16:33:43.121Z,6.03
2023-05-25T16:36:12.802Z,5.38
2023-05-25T16:38:40.936Z,5.82
2023-05-25T16:41:08.512Z,5.25
2023-05-25T16:43:35.940Z,5.35
2023-05-25T16:46:03.369Z,5.25
2023-05-25T16:48:31.302Z,5.43
2023-05-25T16:50:58.855Z,5.20
2023-05-25T16:53:26.297Z,4.57
2023-05-25T16:55:53.972Z,6.35
2023-05-25T16:58:23.427Z,6.57
2023-05-25T17:00:50.987Z,4.68
2023-05-25T17:03:18.600Z,9.65
2023-05-25T17:05:46.359Z,9.98
2023-05-25T17:08:14.040Z,6.22
2023-05-25T17:10:47.728Z,6.07
2023-05-25T17:13:15.435Z,9.30
2023-05-25T17:15:43.221Z,6.32
2023-05-25T17:18:10.953Z,6.25
2023-05-25T17:20:38.593Z,5.93
2023-05-25T17:23:06.348Z,7.28
2023-05-25T17:25:34.263Z,6.30
2023-05-25T17:28:01.945Z,12.00
2023-05-25T17:30:29.438Z,7.70
2023-05-25T17:33:00.789Z,7.53
2023-05-25T17:35:31.082Z,5.88
2023-05-25T17:37:58.467Z,6.40
2023-05-25T17:40:25.991Z,6.70
2023-05-25T17:42:53.607Z,6.68
2023-05-25T17:45:21.248Z,6.40
2023-05-25T17:47:48.907Z,7.28
2023-05-25T17:50:16.497Z,6.50
2023-05-25T17:52:43.957Z,8.00
2023-05-25T17:55:11.481Z,6.55
2023-05-25T17:57:38.965Z,6.43
2023-05-25T18:00:07.853Z,5.18
2023-05-25T18:02:40.134Z,5.43
2023-05-25T18:05:08.124Z,4.97
2023-05-25T18:07:35.507Z,7.07
2023-05-25T18:10:03.132Z,6.22
2023-05-25T18:12:31.230Z,7.32
2023-05-25T18:14:58.567Z,8.38
2023-05-25T18:17:26.338Z,7.20
2023-05-25T18:19:54.425Z,7.45
2023-05-25T18:22:22.051Z,8.97
2023-05-25T18:24:49.951Z,8.65
2023-05-25T18:27:17.510Z,8.93
2023-05-25T18:29:45.437Z,10.63
2023-05-25T18:32:12.974Z,11.30
2023-05-25T18:34:40.744Z,11.30
2023-05-25T18:37:08.253Z,12.75
2023-05-25T18:39:35.801Z,11.23
2023-05-25T18:42:03.620Z,11.55
2023-05-25T18:44:31.208Z,10.32
2023-05-25T18:46:59.096Z,8.60
2023-05-25T18:49:32.144Z,7.75
2023-05-25T18:52:00.897Z,7.90
2023-05-25T18:54:29.119Z,8.20
2023-05-25T18:56:56.789Z,5.88
2023-05-25T18:59:24.346Z,6.75
2023-05-25T19:01:52.068Z,8.23
2023-05-25T19:04:19.714Z,8.32
2023-05-25T19:06:47.421Z,8.75
2023-05-25T19:09:14.989Z,7.50
2023-05-25T19:11:42.429Z,7.90
2023-05-25T19:14:10.066Z,7.15
2023-05-25T19:16:37.793Z,8.48
2023-05-25T19:19:05.419Z,7.25
2023-05-25T19:21:32.813Z,5.38
2023-05-25T19:24:00.642Z,5.55
2023-05-25T19:26:28.251Z,7.07
2023-05-25T19:28:55.935Z,7.72
2023-05-25T19:31:23.747Z,7.25
2023-05-25T19:33:51.541Z,7.03
2023-05-25T19:36:18.928Z,5.85
2023-05-25T19:38:46.309Z,6.30
2023-05-25T19:41:13.899Z,5.85
2023-05-25T19:43:41.345Z,6.13
2023-05-25T19:46:08.971Z,7.00
2023-05-25T19:48:39.325Z,6.18
2023-05-25T19:51:06.941Z,6.57
2023-05-25T19:53:34.401Z,6.28
2023-05-25T19:56:02.765Z,7.88
2023-05-25T19:58:30.478Z,7.70
2023-05-25T20:00:58.050Z,6.80
2023-05-25T20:03:25.674Z,11.35
2023-05-25T20:05:53.152Z,8.07
2023-05-25T20:08:20.888Z,9.60
2023-05-25T20:10:50.257Z,7.57
2023-05-25T20:13:18.170Z,7.10
2023-05-25T20:15:45.981Z,6.63
2023-05-25T20:18:13.906Z,7.75
2023-05-25T20:20:41.545Z,7.90
2023-05-25T20:23:09.229Z,6.88
2023-05-25T20:25:37.157Z,6.57
2023-05-25T20:28:04.583Z,10.68
2023-05-25T20:30:32.209Z,9.07
2023-05-25T20:32:59.872Z,8.80
2023-05-25T20:35:29.776Z,8.50
2023-05-25T20:37:58.476Z,7.13
2023-05-25T20:40:26.699Z,9.10
2023-05-25T20:42:54.128Z,11.80
2023-05-25T20:45:21.667Z,10.15
2023-05-25T20:48:00.644Z,9.50
2023-05-25T20:52:56.731Z,9.13
2023-05-25T20:55:26.019Z,11.13
2023-05-25T21:00:23.034Z,8.45
2023-05-25T21:02:50.713Z,7.50
2023-05-25T21:05:18.290Z,10.30
2023-05-25T21:07:46.124Z,11.95
2023-05-25T21:10:13.921Z,11.80
2023-05-25T21:12:41.370Z,7.95
2023-05-25T21:15:09.301Z,10.65
2023-05-25T21:17:36.658Z,10.25
2023-05-25T21:20:05.130Z,9.05
2023-05-25T21:22:32.645Z,12.25
2023-05-25T21:25:00.257Z,9.93
2023-05-25T21:27:27.746Z,11.80
2023-05-25T21:29:55.288Z,9.25
2023-05-25T21:32:22.828Z,7.25
2023-05-25T21:34:50.453Z,5.93
2023-05-25T21:37:18.373Z,10.85
2023-05-25T21:39:45.944Z,10.85
2023-05-25T21:42:13.597Z,9.88
2023-05-25T21:44:41.174Z,10.15
2023-05-25T21:47:08.628Z,12.38
2023-05-25T21:49:36.128Z,10.27
2023-05-25T21:52:03.871Z,15.50
2023-05-25T21:54:31.398Z,9.65
2023-05-25T21:56:58.958Z,11.70
2023-05-25T21:59:26.493Z,9.05
2023-05-25T22:01:53.930Z,9.40
2023-05-25T22:04:21.315Z,8.48
2023-05-25T22:06:48.724Z,8.35
2023-05-25T22:09:16.270Z,9.60
2023-05-25T22:11:43.907Z,9.82
2023-05-25T22:14:11.427Z,10.88
2023-05-25T22:16:39.029Z,23.40
2023-05-25T22:19:07.086Z,14.93
2023-05-25T22:21:34.557Z,9.80
2023-05-25T22:24:02.364Z,14.88
2023-05-25T22:26:30.393Z,11.00
2023-05-25T22:28:57.844Z,9.30
2023-05-25T22:31:26.249Z,10.98
2023-05-25T22:33:53.816Z,10.77
2023-05-25T22:36:21.206Z,10.80
2023-05-25T22:38:48.762Z,9.50
2023-05-25T22:41:16.430Z,11.55
2023-05-25T22:43:44.183Z,12.48
2023-05-25T22:46:11.670Z,7.85
2023-05-25T22:48:39.694Z,10.45
2023-05-25T22:51:07.217Z,9.32
2023-05-25T22:53:34.735Z,8.70
2023-05-25T22:56:02.462Z,8.10
2023-05-25T22:58:30.070Z,8.07
2023-05-25T23:00:57.566Z,10.38
2023-05-25T23:03:25.206Z,7.97
2023-05-25T23:05:52.880Z,10.20
2023-05-25T23:08:20.750Z,7.25
2023-05-25T23:10:48.775Z,8.47
2023-05-25T23:13:16.659Z,9.27
2023-05-25T23:15:45.034Z,7.75
2023-05-25T23:18:12.822Z,8.20
2023-05-25T23:20:40.462Z,11.55
2023-05-25T23:23:07.992Z,6.88
2023-05-25T23:25:36.201Z,6.78
2023-05-25T23:28:03.710Z,6.70
2023-05-25T23:30:31.363Z,7.50
2023-05-25T23:33:00.114Z,7.75
2023-05-25T23:35:28.162Z,8.93
2023-05-25T23:37:56.961Z,7.60
2023-05-25T23:40:24.481Z,7.68
2023-05-25T23:42:52.125Z,8.15
2023-05-25T23:45:20.164Z,7.90
2023-05-25T23:47:47.801Z,8.80
2023-05-25T23:50:15.447Z,8.55
2023-05-25T23:52:44.426Z,10.57
2023-05-25T23:55:13.094Z,10.20
2023-05-25T23:57:40.990Z,9.52
